createdAt,value
2023-11-16T00:01:51.026Z,7.53
2023-11-16T00:04:36.964Z,7.59
2023-11-16T00:07:25.545Z,7.63
2023-11-16T00:10:11.135Z,7.65
2023-11-16T00:12:56.838Z,7.65
2023-11-16T00:15:42.709Z,7.67
2023-11-16T00:18:29.065Z,7.68
2023-11-16T00:21:14.447Z,7.69
2023-11-16T00:23:59.853Z,7.70
2023-11-16T00:26:51.942Z,7.73
2023-11-16T00:29:39.925Z,7.75
2023-11-16T00:32:25.768Z,7.77
2023-11-16T00:35:12.233Z,7.79
2023-11-16T00:37:57.892Z,7.81
2023-11-16T00:40:44.223Z,7.82
2023-11-16T00:43:30.229Z,7.84
2023-11-16T00:46:18.067Z,7.85
2023-11-16T00:49:05.166Z,7.86
2023-11-16T00:51:51.368Z,7.84
2023-11-16T00:54:37.439Z,7.85
2023-11-16T00:57:23.454Z,7.85
2023-11-16T01:00:12.615Z,7.85
2023-11-16T01:03:00.569Z,7.83
2023-11-16T01:05:47.702Z,7.82
2023-11-16T01:08:38.274Z,7.79
2023-11-16T01:11:29.034Z,7.78
2023-11-16T01:14:18.319Z,7.77
2023-11-16T01:17:09.131Z,7.76
2023-11-16T01:19:58.406Z,7.73
2023-11-16T01:22:51.755Z,7.73
2023-11-16T01:25:42.376Z,7.71
2023-11-16T01:28:29.415Z,7.70
2023-11-16T01:31:15.670Z,7.69
2023-11-16T01:34:01.220Z,7.66
2023-11-16T01:36:46.521Z,7.66
2023-11-16T01:39:34.761Z,7.67
2023-11-16T01:42:21.518Z,7.67
2023-11-16T01:45:26.946Z,7.68
2023-11-16T01:48:13.103Z,7.68
2023-11-16T01:50:58.359Z,7.69
2023-11-16T01:53:49.371Z,7.68
2023-11-16T01:56:37.424Z,7.68
2023-11-16T01:59:24.633Z,7.67
2023-11-16T02:02:12.660Z,7.67
2023-11-16T02:04:58.802Z,7.67
2023-11-16T02:07:45.947Z,7.68
2023-11-16T02:10:33.144Z,7.68
2023-11-16T02:13:25.566Z,7.68
2023-11-16T02:16:15.301Z,7.68
2023-11-16T02:19:15.125Z,7.67
2023-11-16T02:22:03.795Z,7.65
2023-11-16T02:24:49.244Z,7.65
2023-11-16T02:27:34.935Z,7.67
2023-11-16T02:30:21.271Z,7.68
2023-11-16T02:33:07.324Z,7.68
2023-11-16T02:35:53.883Z,7.67
2023-11-16T02:38:40.112Z,7.68
2023-11-16T02:41:27.470Z,7.66
2023-11-16T02:44:12.720Z,7.65
2023-11-16T02:47:00.185Z,7.66
2023-11-16T02:49:45.753Z,7.65
2023-11-16T02:52:31.300Z,7.64
2023-11-16T02:55:16.957Z,7.65
2023-11-16T02:58:02.528Z,7.65
2023-11-16T03:00:48.021Z,7.66
2023-11-16T03:03:35.724Z,7.67
2023-11-16T03:06:22.445Z,7.68
2023-11-16T03:09:11.115Z,7.69
2023-11-16T03:11:56.787Z,7.69
2023-11-16T03:14:42.338Z,7.71
2023-11-16T03:17:28.923Z,7.70
2023-11-16T03:20:18.121Z,7.73
2023-11-16T03:23:03.554Z,7.74
2023-11-16T03:25:49.063Z,7.75
2023-11-16T03:28:37.221Z,7.74
2023-11-16T03:31:22.880Z,7.75
2023-11-16T03:34:08.321Z,7.76
2023-11-16T03:36:53.909Z,7.75
2023-11-16T03:39:39.595Z,7.77
2023-11-16T03:42:25.301Z,7.78
2023-11-16T03:45:15.046Z,7.77
2023-11-16T03:48:01.056Z,7.76
2023-11-16T03:50:46.526Z,7.75
2023-11-16T03:53:32.891Z,7.71
2023-11-16T03:56:19.117Z,7.69
2023-11-16T03:59:06.276Z,7.67
2023-11-16T04:01:52.852Z,7.63
2023-11-16T04:04:38.906Z,7.62
2023-11-16T04:07:25.896Z,7.61
2023-11-16T04:10:13.448Z,7.59
2023-11-16T04:13:00.356Z,7.58
2023-11-16T04:15:48.113Z,7.56
2023-11-16T04:18:35.385Z,7.53
2023-11-16T04:21:22.562Z,7.50
2023-11-16T04:24:12.652Z,7.49
2023-11-16T04:26:58.336Z,7.48
2023-11-16T04:29:46.720Z,7.48
2023-11-16T04:32:32.369Z,7.48
2023-11-16T04:35:19.215Z,7.47
2023-11-16T04:38:05.275Z,7.49
2023-11-16T04:40:52.653Z,7.47
2023-11-16T04:43:38.668Z,7.48
2023-11-16T04:46:27.929Z,7.47
2023-11-16T04:49:15.037Z,7.47
2023-11-16T04:52:03.079Z,7.47
2023-11-16T04:54:48.827Z,7.46
2023-11-16T04:57:34.282Z,7.46
2023-11-16T05:00:21.621Z,7.46
2023-11-16T05:03:09.184Z,7.46
2023-11-16T05:05:57.366Z,7.44
2023-11-16T05:08:43.703Z,7.43
2023-11-16T05:11:30.990Z,7.43
2023-11-16T05:14:16.405Z,7.39
2023-11-16T05:17:04.490Z,7.35
2023-11-16T05:19:49.999Z,7.32
2023-11-16T05:22:35.719Z,7.29
2023-11-16T05:25:21.109Z,7.25
2023-11-16T05:28:07.819Z,7.22
2023-11-16T05:30:53.704Z,7.19
2023-11-16T05:33:39.432Z,7.17
2023-11-16T05:36:30.859Z,7.14
2023-11-16T05:39:17.808Z,7.11
2023-11-16T05:42:03.202Z,7.09
2023-11-16T05:44:49.584Z,7.07
2023-11-16T05:47:35.312Z,7.05
2023-11-16T05:50:20.725Z,7.03
2023-11-16T05:53:07.731Z,7.01
2023-11-16T05:55:53.782Z,6.98
2023-11-16T05:58:39.657Z,6.94
2023-11-16T06:01:25.918Z,6.90
2023-11-16T06:04:12.554Z,6.86
2023-11-16T06:06:58.303Z,6.81
2023-11-16T06:09:43.879Z,6.79
2023-11-16T06:12:29.289Z,6.78
2023-11-16T06:15:18.205Z,6.75
2023-11-16T06:18:04.233Z,6.75
2023-11-16T06:20:49.571Z,6.76
2023-11-16T06:23:35.317Z,6.77
2023-11-16T06:26:20.745Z,6.77
2023-11-16T06:29:07.673Z,6.79
2023-11-16T06:31:53.576Z,6.79
2023-11-16T06:34:38.903Z,6.78
2023-11-16T06:37:25.125Z,6.79
2023-11-16T06:40:11.690Z,6.79
2023-11-16T06:42:58.169Z,6.78
2023-11-16T06:45:45.620Z,6.78
2023-11-16T06:48:32.213Z,6.79
2023-11-16T06:51:18.670Z,6.79
2023-11-16T06:54:06.993Z,6.79
2023-11-16T06:56:54.484Z,6.80
2023-11-16T06:59:43.605Z,6.81
2023-11-16T07:02:30.322Z,6.85
2023-11-16T07:05:16.101Z,6.86
2023-11-16T07:08:02.692Z,6.88
2023-11-16T07:10:48.240Z,6.90
2023-11-16T07:13:34.018Z,6.90
2023-11-16T07:16:20.224Z,6.89
2023-11-16T07:19:08.760Z,6.88
2023-11-16T07:21:55.043Z,6.87
2023-11-16T07:24:40.813Z,6.88
2023-11-16T07:27:27.144Z,6.88
2023-11-16T07:30:14.191Z,6.86
2023-11-16T07:33:03.349Z,6.85
2023-11-16T07:35:51.517Z,6.84
2023-11-16T07:38:37.213Z,6.84
2023-11-16T07:41:23.031Z,6.84
2023-11-16T07:44:08.598Z,6.85
2023-11-16T07:46:56.607Z,6.87
2023-11-16T07:49:42.529Z,6.86
2023-11-16T07:52:28.295Z,6.86
2023-11-16T07:55:21.128Z,6.85
2023-11-16T07:58:08.038Z,6.87
2023-11-16T08:00:57.179Z,6.86
2023-11-16T08:03:43.502Z,6.87
2023-11-16T08:06:31.603Z,6.87
2023-11-16T08:09:22.036Z,6.92
2023-11-16T08:12:11.409Z,6.98
2023-11-16T08:14:57.463Z,7.06
2023-11-16T08:17:45.993Z,7.14
2023-11-16T08:20:33.280Z,7.18
2023-11-16T08:23:19.605Z,7.22
2023-11-16T08:26:11.701Z,7.26
2023-11-16T08:28:57.361Z,7.30
2023-11-16T08:31:43.185Z,7.35
2023-11-16T08:34:30.447Z,7.46
2023-11-16T08:37:16.909Z,7.54
2023-11-16T08:40:02.538Z,7.62
2023-11-16T08:42:51.823Z,7.70
2023-11-16T08:45:38.149Z,7.80
2023-11-16T08:48:33.318Z,7.90
2023-11-16T08:51:19.289Z,7.96
2023-11-16T08:54:08.803Z,7.96
2023-11-16T08:56:55.050Z,7.93
2023-11-16T09:00:00.189Z,7.93
2023-11-16T09:02:45.919Z,7.94
2023-11-16T09:05:40.685Z,8.01
2023-11-16T09:08:27.292Z,8.09
2023-11-16T09:11:19.115Z,8.15
2023-11-16T09:14:07.760Z,8.21
2023-11-16T09:17:12.324Z,8.27
2023-11-16T09:20:00.372Z,8.37
2023-11-16T09:22:50.106Z,8.42
2023-11-16T09:25:36.038Z,8.45
2023-11-16T09:28:23.292Z,8.43
2023-11-16T09:31:13.687Z,8.42
2023-11-16T09:34:01.648Z,8.45
2023-11-16T09:36:49.334Z,8.50
2023-11-16T09:39:35.305Z,8.56
2023-11-16T09:42:21.148Z,8.63
2023-11-16T09:45:11.102Z,8.66
2023-11-16T09:48:11.617Z,8.63
2023-11-16T09:50:57.305Z,8.65
2023-11-16T09:53:44.546Z,8.68
2023-11-16T09:56:41.568Z,8.74
2023-11-16T09:59:36.146Z,8.80
2023-11-16T10:02:26.841Z,8.88
2023-11-16T10:05:36.774Z,8.93
2023-11-16T10:08:24.605Z,9.01
2023-11-16T10:11:10.893Z,9.06
2023-11-16T10:13:57.539Z,9.11
2023-11-16T10:16:45.171Z,9.21
2023-11-16T10:19:31.614Z,9.29
2023-11-16T10:22:18.238Z,9.24
2023-11-16T10:25:07.309Z,9.29
2023-11-16T10:27:53.291Z,9.45
2023-11-16T10:30:39.954Z,9.58
2023-11-16T10:33:27.274Z,9.72
2023-11-16T10:36:13.889Z,9.86
2023-11-16T10:39:02.172Z,9.96
2023-11-16T10:41:48.624Z,10.10
2023-11-16T10:44:44.597Z,10.19
2023-11-16T10:47:32.108Z,10.22
2023-11-16T10:50:18.514Z,10.19
2023-11-16T10:53:07.914Z,10.20
2023-11-16T10:55:59.506Z,10.21
2023-11-16T10:58:48.843Z,10.24
2023-11-16T11:01:35.880Z,10.25
2023-11-16T11:04:23.816Z,10.23
2023-11-16T11:07:10.494Z,10.22
2023-11-16T11:09:57.583Z,10.18
2023-11-16T11:12:50.110Z,10.19
2023-11-16T11:15:38.206Z,10.22
2023-11-16T11:18:26.724Z,10.22
2023-11-16T11:21:13.821Z,10.23
2023-11-16T11:24:06.765Z,10.25
2023-11-16T11:26:54.172Z,10.24
2023-11-16T11:29:39.613Z,10.27
2023-11-16T11:32:45.265Z,10.34
2023-11-16T11:35:39.114Z,10.39
2023-11-16T11:38:31.465Z,10.41
2023-11-16T11:41:19.695Z,10.45
2023-11-16T11:44:06.258Z,10.50
2023-11-16T11:46:52.505Z,10.53
2023-11-16T11:49:42.334Z,10.54
2023-11-16T11:52:30.652Z,10.54
2023-11-16T11:55:18.466Z,10.54
2023-11-16T11:58:05.112Z,10.57
2023-11-16T12:00:52.893Z,10.56
2023-11-16T12:03:54.093Z,10.51
2023-11-16T12:06:41.770Z,10.55
2023-11-16T12:09:32.344Z,10.55
2023-11-16T12:12:17.818Z,10.54
2023-11-16T12:15:04.037Z,10.57
2023-11-16T12:17:51.287Z,10.62
2023-11-16T12:20:38.885Z,10.67
2023-11-16T12:23:28.091Z,10.72
2023-11-16T12:26:15.284Z,10.73
2023-11-16T12:29:01.559Z,10.74
2023-11-16T12:31:47.436Z,10.72
2023-11-16T12:34:34.389Z,10.69
2023-11-16T12:37:20.097Z,10.66
2023-11-16T12:40:10.542Z,10.63
2023-11-16T12:42:57.256Z,10.65
2023-11-16T12:45:43.993Z,10.70
2023-11-16T12:48:31.166Z,10.72
2023-11-16T12:51:20.997Z,10.75
2023-11-16T12:54:07.431Z,10.79
2023-11-16T12:56:54.301Z,10.79
2023-11-16T12:59:40.897Z,10.78
2023-11-16T13:02:26.659Z,10.77
2023-11-16T13:05:16.364Z,10.74
2023-11-16T13:08:02.793Z,10.71
2023-11-16T13:10:48.416Z,10.66
2023-11-16T13:13:33.959Z,10.60
2023-11-16T13:16:19.529Z,10.55
2023-11-16T13:19:07.999Z,10.51
2023-11-16T13:21:54.270Z,10.43
2023-11-16T13:24:41.598Z,10.32
2023-11-16T13:27:35.068Z,10.24
2023-11-16T13:30:29.410Z,10.17
2023-11-16T13:33:15.599Z,10.11
2023-11-16T13:36:02.305Z,10.08
2023-11-16T13:38:48.294Z,10.04
2023-11-16T13:41:34.368Z,10.01
2023-11-16T13:44:20.128Z,9.95
2023-11-16T13:47:05.942Z,9.93
2023-11-16T13:49:51.721Z,9.89
2023-11-16T13:52:38.922Z,9.84
2023-11-16T13:55:24.374Z,9.77
2023-11-16T13:58:10.309Z,9.70
2023-11-16T14:00:56.281Z,9.60
2023-11-16T14:03:42.047Z,9.55
2023-11-16T14:06:28.754Z,9.47
2023-11-16T14:09:14.697Z,9.43
2023-11-16T14:12:01.290Z,9.41
2023-11-16T14:14:46.983Z,9.37
2023-11-16T14:17:32.561Z,9.35
2023-11-16T14:20:18.355Z,9.35
2023-11-16T14:23:04.340Z,9.34
2023-11-16T14:25:50.502Z,9.34
2023-11-16T14:28:36.967Z,9.32
2023-11-16T14:31:22.835Z,9.29
2023-11-16T14:34:08.885Z,9.27
2023-11-16T14:36:54.492Z,9.24
2023-11-16T14:39:40.454Z,9.18
2023-11-16T14:42:26.045Z,9.10
2023-11-16T14:45:12.193Z,9.05
2023-11-16T14:47:58.662Z,9.01
2023-11-16T14:50:44.327Z,8.94
2023-11-16T14:53:34.532Z,8.90
2023-11-16T14:56:21.464Z,8.84
2023-11-16T14:59:09.363Z,8.80
2023-11-16T15:01:54.878Z,8.76
2023-11-16T15:04:43.965Z,8.71
2023-11-16T15:07:31.908Z,8.66
2023-11-16T15:10:22.000Z,8.62
2023-11-16T15:13:08.188Z,8.59
2023-11-16T15:15:53.849Z,8.56
2023-11-16T15:18:41.079Z,8.54
2023-11-16T15:21:26.646Z,8.53
2023-11-16T15:24:12.457Z,8.51
2023-11-16T15:27:00.368Z,8.47
2023-11-16T15:29:46.974Z,8.45
2023-11-16T15:32:34.319Z,8.43
2023-11-16T15:35:20.154Z,8.41
2023-11-16T15:38:06.201Z,8.40
2023-11-16T15:40:51.738Z,8.37
2023-11-16T15:43:37.602Z,8.37
2023-11-16T15:46:23.547Z,8.35
2023-11-16T15:49:10.049Z,8.32
2023-11-16T15:51:55.885Z,8.29
2023-11-16T15:54:41.439Z,8.28
2023-11-16T15:57:29.803Z,8.25
2023-11-16T16:00:20.583Z,8.22
2023-11-16T16:03:08.910Z,8.19
2023-11-16T16:05:55.477Z,8.17
2023-11-16T16:08:43.557Z,8.15
2023-11-16T16:11:29.684Z,8.10
2023-11-16T16:14:15.134Z,8.08
2023-11-16T16:17:01.729Z,8.06
2023-11-16T16:19:47.443Z,8.05
2023-11-16T16:22:33.023Z,8.04
2023-11-16T16:25:18.601Z,8.01
2023-11-16T16:28:05.425Z,7.97
2023-11-16T16:30:51.645Z,7.95
2023-11-16T16:33:38.065Z,7.89
2023-11-16T16:36:24.149Z,7.82
2023-11-16T16:39:16.284Z,7.77
2023-11-16T16:42:02.630Z,7.73
2023-11-16T16:44:48.293Z,7.67
2023-11-16T16:47:34.327Z,7.61
2023-11-16T16:50:19.787Z,7.54
2023-11-16T16:53:05.330Z,7.48
2023-11-16T16:55:50.863Z,7.45
2023-11-16T16:58:36.314Z,7.43
2023-11-16T17:01:21.963Z,7.38
2023-11-16T17:04:08.267Z,7.36
2023-11-16T17:06:56.544Z,7.33
2023-11-16T17:09:41.985Z,7.30
2023-11-16T17:12:27.642Z,7.28
2023-11-16T17:15:13.478Z,7.23
2023-11-16T17:17:59.638Z,7.20
2023-11-16T17:20:45.458Z,7.17
2023-11-16T17:23:30.898Z,7.15
2023-11-16T17:26:16.584Z,7.14
2023-11-16T17:29:02.316Z,7.11
2023-11-16T17:31:48.131Z,7.08
2023-11-16T17:34:34.121Z,7.03
2023-11-16T17:37:19.638Z,6.95
2023-11-16T17:40:08.643Z,6.92
2023-11-16T17:42:54.312Z,6.90
2023-11-16T17:45:39.965Z,6.88
2023-11-16T17:48:26.012Z,6.86
2023-11-16T17:51:11.482Z,6.85
2023-11-16T17:53:57.308Z,6.84
2023-11-16T17:56:43.589Z,6.83
2023-11-16T17:59:30.921Z,6.79
2023-11-16T18:02:16.736Z,6.78
2023-11-16T18:05:02.361Z,6.71
2023-11-16T18:07:48.392Z,6.66
2023-11-16T18:10:34.511Z,6.64
2023-11-16T18:13:20.701Z,6.63
2023-11-16T18:16:08.268Z,6.62
2023-11-16T18:18:54.069Z,6.61
2023-11-16T18:21:39.559Z,6.61
2023-11-16T18:24:25.368Z,6.60
2023-11-16T18:27:15.240Z,6.58
2023-11-16T18:30:01.387Z,6.57
2023-11-16T18:32:52.437Z,6.54
2023-11-16T18:35:42.284Z,6.53
2023-11-16T18:38:28.884Z,6.51
2023-11-16T18:41:15.890Z,6.49
2023-11-16T18:44:01.497Z,6.45
2023-11-16T18:46:47.216Z,6.42
2023-11-16T18:49:33.003Z,6.38
2023-11-16T18:52:20.118Z,6.38
2023-11-16T18:55:06.118Z,6.36
2023-11-16T18:57:51.639Z,6.35
2023-11-16T19:00:37.661Z,6.32
2023-11-16T19:03:23.609Z,6.29
2023-11-16T19:06:10.108Z,6.25
2023-11-16T19:08:55.833Z,6.22
2023-11-16T19:11:41.721Z,6.20
2023-11-16T19:14:30.387Z,6.18
2023-11-16T19:17:16.189Z,6.15
2023-11-16T19:20:02.441Z,6.13
2023-11-16T19:22:48.117Z,6.09
2023-11-16T19:25:36.689Z,6.05
2023-11-16T19:28:24.383Z,6.02
2023-11-16T19:31:10.074Z,6.00
2023-11-16T19:33:55.970Z,5.97
2023-11-16T19:36:43.237Z,5.92
2023-11-16T19:39:37.030Z,5.90
2023-11-16T19:42:28.558Z,5.88
2023-11-16T19:45:14.181Z,5.86
2023-11-16T19:47:59.894Z,5.85
2023-11-16T19:50:46.834Z,5.84
2023-11-16T19:53:34.564Z,5.84
2023-11-16T19:56:20.175Z,5.84
2023-11-16T19:59:05.837Z,5.83
2023-11-16T20:01:51.688Z,5.84
2023-11-16T20:04:39.991Z,5.83
2023-11-16T20:07:29.498Z,5.83
2023-11-16T20:10:16.640Z,5.83
2023-11-16T20:13:03.808Z,5.82
2023-11-16T20:15:49.668Z,5.82
2023-11-16T20:18:35.280Z,5.82
2023-11-16T20:21:21.179Z,5.83
2023-11-16T20:24:08.924Z,5.83
2023-11-16T20:26:55.394Z,5.83
2023-11-16T20:29:41.002Z,5.84
2023-11-16T20:32:27.157Z,5.84
2023-11-16T20:35:13.915Z,5.85
2023-11-16T20:37:59.472Z,5.83
2023-11-16T20:40:45.147Z,5.83
2023-11-16T20:43:30.998Z,5.85
2023-11-16T20:46:20.045Z,5.83
2023-11-16T20:49:06.385Z,5.83
2023-11-16T20:51:51.814Z,5.84
2023-11-16T20:54:38.984Z,5.83
2023-11-16T20:57:24.723Z,5.82
2023-11-16T21:00:19.393Z,5.77
2023-11-16T21:03:05.114Z,5.79
2023-11-16T21:05:51.299Z,5.82
2023-11-16T21:08:36.820Z,5.82
2023-11-16T21:11:22.285Z,5.83
2023-11-16T21:14:08.318Z,5.84
2023-11-16T21:16:54.281Z,5.84
2023-11-16T21:19:40.869Z,5.86
2023-11-16T21:22:27.625Z,5.84
2023-11-16T21:25:14.932Z,5.84
2023-11-16T21:28:01.003Z,5.84
2023-11-16T21:30:46.660Z,5.85
2023-11-16T21:33:32.337Z,5.84
2023-11-16T21:36:17.887Z,5.83
2023-11-16T21:39:07.512Z,5.82
2023-11-16T21:41:53.183Z,5.82
2023-11-16T21:44:38.647Z,5.81
2023-11-16T21:47:24.201Z,5.82
2023-11-16T21:50:12.740Z,5.81
2023-11-16T21:52:58.123Z,5.79
2023-11-16T21:55:44.571Z,5.79
2023-11-16T21:58:32.657Z,5.79
2023-11-16T22:01:20.429Z,5.81
2023-11-16T22:04:06.556Z,5.78
2023-11-16T22:06:52.557Z,5.77
2023-11-16T22:09:38.215Z,5.76
2023-11-16T22:12:23.646Z,5.77
2023-11-16T22:15:11.065Z,5.77
2023-11-16T22:17:57.061Z,5.77
2023-11-16T22:20:42.478Z,5.75
2023-11-16T22:23:30.227Z,5.73
2023-11-16T22:26:16.301Z,5.73
2023-11-16T22:29:02.488Z,5.73
2023-11-16T22:31:48.531Z,5.72
2023-11-16T22:34:34.469Z,5.72
2023-11-16T22:37:20.177Z,5.71
2023-11-16T22:40:08.017Z,5.69
2023-11-16T22:42:54.116Z,5.70
2023-11-16T22:45:39.989Z,5.70
2023-11-16T22:48:27.243Z,5.70
2023-11-16T22:51:14.172Z,5.69
2023-11-16T22:54:00.229Z,5.67
2023-11-16T22:56:45.637Z,5.68
2023-11-16T22:59:31.119Z,5.66
2023-11-16T23:02:16.672Z,5.64
2023-11-16T23:05:08.553Z,5.63
2023-11-16T23:07:57.042Z,5.61
2023-11-16T23:10:42.619Z,5.60
2023-11-16T23:13:28.317Z,5.58
2023-11-16T23:16:13.938Z,5.56
2023-11-16T23:18:59.527Z,5.55
2023-11-16T23:21:45.192Z,5.55
2023-11-16T23:24:31.966Z,5.54
2023-11-16T23:27:18.447Z,5.53
2023-11-16T23:30:06.201Z,5.54
2023-11-16T23:32:52.158Z,5.54
2023-11-16T23:35:37.983Z,5.52
2023-11-16T23:38:24.233Z,5.52
2023-11-16T23:41:09.737Z,5.51
2023-11-16T23:43:56.829Z,5.50
2023-11-16T23:46:43.641Z,5.49
2023-11-16T23:49:29.238Z,5.50
2023-11-16T23:52:14.873Z,5.48
2023-11-16T23:55:00.572Z,5.48
2023-11-16T23:57:46.377Z,5.48
